首页
METAR-TAF:

METAR-TAF

机场 :

布鲁姆, 澳大利亚

纬度: 17-57S, 经度: 122-13E, 海拔: 17米

当前天气观测

该预报发布于44分钟前的08:00 UTC
风速11节,风向西北
温度 31°C
湿度 75%
气压 1007 hPa
能见度10公里或以上
散云层高于1800英尺

METAR: YBRM 170800Z AUTO 32011KT 9999 // SCT018 31/26 Q1007

时间: 16:44 (08:44 UTC)

预报

该预报发布于3小时和32分钟前的05:12 UTC
预报有效从17日的 06点(UTC)到 18日的 06点(UTC)
风速12节,风向西转西北
能见度10公里或以上
散云层高于2000英尺
从 17日的 1200点(UTC)
风速8节,风向西转西北
能见度10公里或以上
多云层高于1500英尺
从 18日的 0000点(UTC)
风速12节,风向西
能见度10公里或以上
散云层高于2500英尺
几率 30%
在之间 IN和TE点(UTC)
风速25节,风向多变,有时为45节阵风
能見度: 1000
多云层高于800英尺
散云层高于8000英尺, 积雨云.
雷暴, 雨

TAF: YBRM 170512Z 1706/1806 30012KT 9999 SCT020 FM171200 30008KT 9999 BKN015 FM180000 28012KT 9999 SCT025 PROB30 INTER 1712/1720 VRB25G45KT 1000 TSRA BKN008 SCT080CB

超过4000个机场的气象观测和天气预报(METAR&TAF报告)。

可查询的气象台以黄色和红色小点在地图上表示。

将鼠标移到小点上方,可查看气象台名称。

然后点击查看天气观测和预报。

如需切换地图:点击带黑十字的绿色按钮放大地图;点击带横线的绿色按钮缩小地图;或者点击绿色箭头查看邻近地区的地图。


METAR-TAF: